sensor_id;sensor_type;location;lat;lon;timestamp;temperature;humidity
15481;DHT22;7842;50.904;6.670;2023-06-04T00:00:24;15.70;99.90
15481;DHT22;7842;50.904;6.670;2023-06-04T00:02:50;15.70;99.90
15481;DHT22;7842;50.904;6.670;2023-06-04T00:05:16;15.60;99.90
15481;DHT22;7842;50.904;6.670;2023-06-04T00:07:41;15.60;99.90
15481;DHT22;7842;50.904;6.670;2023-06-04T00:10:07;15.50;99.90
15481;DHT22;7842;50.904;6.670;2023-06-04T00:12:33;15.30;99.90
15481;DHT22;7842;50.904;6.670;2023-06-04T00:14:59;15.30;99.90
15481;DHT22;7842;50.904;6.670;2023-06-04T00:17:24;15.10;99.90
15481;DHT22;7842;50.904;6.670;2023-06-04T00:19:50;15.10;99.90
15481;DHT22;7842;50.904;6.670;2023-06-04T00:22:16;15.00;99.90
15481;DHT22;7842;50.904;6.670;2023-06-04T00:24:41;15.00;99.90
15481;DHT22;7842;50.904;6.670;2023-06-04T00:27:10;15.00;99.90
15481;DHT22;7842;50.904;6.670;2023-06-04T00:29:36;15.00;99.90
15481;DHT22;7842;50.904;6.670;2023-06-04T00:32:02;14.90;99.90
15481;DHT22;7842;50.904;6.670;2023-06-04T00:34:28;14.80;99.90
15481;DHT22;7842;50.904;6.670;2023-06-04T00:36:54;14.80;99.90
15481;DHT22;7842;50.904;6.670;2023-06-04T00:39:19;14.60;99.90
15481;DHT22;7842;50.904;6.670;2023-06-04T00:41:46;14.50;99.90
15481;DHT22;7842;50.904;6.670;2023-06-04T00:44:11;14.40;99.90
15481;DHT22;7842;50.904;6.670;2023-06-04T00:46:37;14.30;99.90
15481;DHT22;7842;50.904;6.670;2023-06-04T00:49:04;14.50;99.90
15481;DHT22;7842;50.904;6.670;2023-06-04T00:51:31;14.20;99.90
15481;DHT22;7842;50.904;6.670;2023-06-04T00:53:58;14.20;99.90
15481;DHT22;7842;50.904;6.670;2023-06-04T00:56:24;14.20;99.90
15481;DHT22;7842;50.904;6.670;2023-06-04T00:58:49;14.40;99.90
15481;DHT22;7842;50.904;6.670;2023-06-04T01:01:39;14.10;99.90
15481;DHT22;7842;50.904;6.670;2023-06-04T01:04:18;14.40;99.90
15481;DHT22;7842;50.904;6.670;2023-06-04T01:06:50;14.00;99.90
15481;DHT22;7842;50.904;6.670;2023-06-04T01:09:16;14.00;99.90
15481;DHT22;7842;50.904;6.670;2023-06-04T01:11:43;14.00;99.90
15481;DHT22;7842;50.904;6.670;2023-06-04T01:14:09;13.90;99.90
15481;DHT22;7842;50.904;6.670;2023-06-04T01:16:43;13.90;99.90
15481;DHT22;7842;50.904;6.670;2023-06-04T01:22:35;13.80;99.90
15481;DHT22;7842;50.904;6.670;2023-06-04T01:25:09;13.60;99.90
15481;DHT22;7842;50.904;6.670;2023-06-04T01:27:38;13.60;99.90
15481;DHT22;7842;50.904;6.670;2023-06-04T01:30:07;13.80;99.90
15481;DHT22;7842;50.904;6.670;2023-06-04T01:32:33;13.50;99.90
15481;DHT22;7842;50.904;6.670;2023-06-04T01:34:59;13.40;99.90
15481;DHT22;7842;50.904;6.670;2023-06-04T01:37:25;13.40;99.90
15481;DHT22;7842;50.904;6.670;2023-06-04T01:39:51;13.30;99.90
15481;DHT22;7842;50.904;6.670;2023-06-04T01:42:17;13.40;99.90
15481;DHT22;7842;50.904;6.670;2023-06-04T01:44:43;13.80;99.90
15481;DHT22;7842;50.904;6.670;2023-06-04T01:47:08;13.30;99.90
15481;DHT22;7842;50.904;6.670;2023-06-04T01:49:34;13.60;99.90
15481;DHT22;7842;50.904;6.670;2023-06-04T01:51:59;13.40;99.90
15481;DHT22;7842;50.904;6.670;2023-06-04T01:54:25;13.20;99.90
15481;DHT22;7842;50.904;6.670;2023-06-04T01:56:51;13.10;99.90
15481;DHT22;7842;50.904;6.670;2023-06-04T01:59:16;12.90;99.90
15481;DHT22;7842;50.904;6.670;2023-06-04T02:01:42;12.80;99.90
15481;DHT22;7842;50.904;6.670;2023-06-04T02:04:08;13.00;99.90
15481;DHT22;7842;50.904;6.670;2023-06-04T02:06:33;13.10;99.90
15481;DHT22;7842;50.904;6.670;2023-06-04T02:08:59;13.30;99.90
15481;DHT22;7842;50.904;6.670;2023-06-04T02:11:25;14.20;99.90
15481;DHT22;7842;50.904;6.670;2023-06-04T02:13:51;12.90;99.90
15481;DHT22;7842;50.904;6.670;2023-06-04T02:16:17;14.30;99.90
15481;DHT22;7842;50.904;6.670;2023-06-04T02:18:42;12.80;99.90
15481;DHT22;7842;50.904;6.670;2023-06-04T02:21:08;12.70;99.90
15481;DHT22;7842;50.904;6.670;2023-06-04T02:23:33;12.70;99.90
15481;DHT22;7842;50.904;6.670;2023-06-04T02:25:59;12.70;99.90
15481;DHT22;7842;50.904;6.670;2023-06-04T02:28:25;13.20;99.90
15481;DHT22;7842;50.904;6.670;2023-06-04T02:30:50;13.10;99.90
15481;DHT22;7842;50.904;6.670;2023-06-04T02:33:16;12.50;99.90
15481;DHT22;7842;50.904;6.670;2023-06-04T02:35:42;12.50;99.90
15481;DHT22;7842;50.904;6.670;2023-06-04T02:38:10;12.40;99.90
15481;DHT22;7842;50.904;6.670;2023-06-04T02:40:43;12.40;99.90
15481;DHT22;7842;50.904;6.670;2023-06-04T02:43:09;14.00;99.90
15481;DHT22;7842;50.904;6.670;2023-06-04T02:45:35;12.30;99.90
15481;DHT22;7842;50.904;6.670;2023-06-04T02:48:00;12.30;99.90
15481;DHT22;7842;50.904;6.670;2023-06-04T02:50:26;12.30;99.90
15481;DHT22;7842;50.904;6.670;2023-06-04T02:52:51;12.30;99.90
15481;DHT22;7842;50.904;6.670;2023-06-04T02:55:17;12.20;99.90
15481;DHT22;7842;50.904;6.670;2023-06-04T02:57:43;12.20;99.90
15481;DHT22;7842;50.904;6.670;2023-06-04T03:00:10;12.30;99.90
15481;DHT22;7842;50.904;6.670;2023-06-04T03:02:44;12.30;99.90
15481;DHT22;7842;50.904;6.670;2023-06-04T03:05:12;12.30;99.90
15481;DHT22;7842;50.904;6.670;2023-06-04T03:07:40;12.40;99.90
15481;DHT22;7842;50.904;6.670;2023-06-04T03:12:43;12.30;99.90
15481;DHT22;7842;50.904;6.670;2023-06-04T03:15:09;12.30;99.90
15481;DHT22;7842;50.904;6.670;2023-06-04T03:17:35;12.30;99.90
15481;DHT22;7842;50.904;6.670;2023-06-04T03:20:01;12.30;99.90
15481;DHT22;7842;50.904;6.670;2023-06-04T03:22:29;12.20;99.90
15481;DHT22;7842;50.904;6.670;2023-06-04T03:24:54;12.20;99.90
15481;DHT22;7842;50.904;6.670;2023-06-04T03:27:20;12.70;99.90
15481;DHT22;7842;50.904;6.670;2023-06-04T03:29:46;12.10;99.90
15481;DHT22;7842;50.904;6.670;2023-06-04T03:32:12;12.80;99.90
15481;DHT22;7842;50.904;6.670;2023-06-04T03:34:40;12.20;99.90
15481;DHT22;7842;50.904;6.670;2023-06-04T03:37:09;12.50;99.90
15481;DHT22;7842;50.904;6.670;2023-06-04T03:39:35;12.10;99.90
15481;DHT22;7842;50.904;6.670;2023-06-04T03:42:01;11.90;99.90
15481;DHT22;7842;50.904;6.670;2023-06-04T03:44:26;12.20;99.90
15481;DHT22;7842;50.904;6.670;2023-06-04T03:46:52;11.70;99.90
15481;DHT22;7842;50.904;6.670;2023-06-04T03:49:18;11.80;99.90
15481;DHT22;7842;50.904;6.670;2023-06-04T03:51:44;12.20;99.90
15481;DHT22;7842;50.904;6.670;2023-06-04T03:54:10;12.20;99.90
15481;DHT22;7842;50.904;6.670;2023-06-04T03:56:37;13.60;99.90
15481;DHT22;7842;50.904;6.670;2023-06-04T03:59:02;12.40;99.90
15481;DHT22;7842;50.904;6.670;2023-06-04T04:01:28;12.50;99.90
15481;DHT22;7842;50.904;6.670;2023-06-04T04:03:54;12.70;99.90
15481;DHT22;7842;50.904;6.670;2023-06-04T04:06:20;13.20;99.90
15481;DHT22;7842;50.904;6.670;2023-06-04T04:08:46;12.90;99.90
15481;DHT22;7842;50.904;6.670;2023-06-04T04:11:15;12.90;99.90
15481;DHT22;7842;50.904;6.670;2023-06-04T04:13:41;13.10;99.90
15481;DHT22;7842;50.904;6.670;2023-06-04T04:16:07;13.80;99.90
15481;DHT22;7842;50.904;6.670;2023-06-04T04:18:33;13.50;99.90
15481;DHT22;7842;50.904;6.670;2023-06-04T04:20:59;13.70;99.90
15481;DHT22;7842;50.904;6.670;2023-06-04T04:23:25;13.80;99.90
15481;DHT22;7842;50.904;6.670;2023-06-04T04:25:50;14.10;99.90
15481;DHT22;7842;50.904;6.670;2023-06-04T04:28:16;14.70;99.90
15481;DHT22;7842;50.904;6.670;2023-06-04T04:30:43;15.30;99.90
15481;DHT22;7842;50.904;6.670;2023-06-04T04:33:10;14.40;99.90
15481;DHT22;7842;50.904;6.670;2023-06-04T04:35:36;14.30;99.90
15481;DHT22;7842;50.904;6.670;2023-06-04T04:38:02;14.30;99.90
15481;DHT22;7842;50.904;6.670;2023-06-04T04:40:31;14.40;99.90
15481;DHT22;7842;50.904;6.670;2023-06-04T04:42:57;14.90;99.90
15481;DHT22;7842;50.904;6.670;2023-06-04T04:45:23;15.10;99.90
15481;DHT22;7842;50.904;6.670;2023-06-04T04:47:48;15.80;99.90
15481;DHT22;7842;50.904;6.670;2023-06-04T04:50:16;15.70;99.90
15481;DHT22;7842;50.904;6.670;2023-06-04T04:52:42;15.90;99.90
15481;DHT22;7842;50.904;6.670;2023-06-04T04:55:08;16.10;99.90
15481;DHT22;7842;50.904;6.670;2023-06-04T04:57:34;16.20;99.90
15481;DHT22;7842;50.904;6.670;2023-06-04T04:59:59;16.60;99.90
15481;DHT22;7842;50.904;6.670;2023-06-04T05:02:25;16.80;99.90
15481;DHT22;7842;50.904;6.670;2023-06-04T05:04:51;17.00;99.90
15481;DHT22;7842;50.904;6.670;2023-06-04T05:07:16;17.10;99.90
15481;DHT22;7842;50.904;6.670;2023-06-04T05:09:42;17.80;99.90
15481;DHT22;7842;50.904;6.670;2023-06-04T05:12:07;18.60;99.90
15481;DHT22;7842;50.904;6.670;2023-06-04T05:14:33;19.40;99.90
15481;DHT22;7842;50.904;6.670;2023-06-04T05:17:01;19.80;99.90
15481;DHT22;7842;50.904;6.670;2023-06-04T05:19:28;20.40;99.90
15481;DHT22;7842;50.904;6.670;2023-06-04T05:21:54;20.50;99.90
15481;DHT22;7842;50.904;6.670;2023-06-04T05:24:20;20.00;99.90
15481;DHT22;7842;50.904;6.670;2023-06-04T05:26:45;19.30;99.90
15481;DHT22;7842;50.904;6.670;2023-06-04T05:29:13;18.80;99.90
15481;DHT22;7842;50.904;6.670;2023-06-04T05:31:39;19.00;99.90
15481;DHT22;7842;50.904;6.670;2023-06-04T05:34:05;19.80;99.90
15481;DHT22;7842;50.904;6.670;2023-06-04T05:36:30;20.20;99.90
15481;DHT22;7842;50.904;6.670;2023-06-04T05:38:56;19.60;99.90
15481;DHT22;7842;50.904;6.670;2023-06-04T05:41:26;19.90;99.90
15481;DHT22;7842;50.904;6.670;2023-06-04T05:43:52;20.10;99.90
15481;DHT22;7842;50.904;6.670;2023-06-04T05:46:18;20.10;99.90
15481;DHT22;7842;50.904;6.670;2023-06-04T05:48:44;20.50;99.90
15481;DHT22;7842;50.904;6.670;2023-06-04T05:51:10;20.10;99.90
15481;DHT22;7842;50.904;6.670;2023-06-04T05:53:36;20.30;99.90
15481;DHT22;7842;50.904;6.670;2023-06-04T05:56:01;20.50;99.90
15481;DHT22;7842;50.904;6.670;2023-06-04T05:58:27;21.00;99.90
15481;DHT22;7842;50.904;6.670;2023-06-04T06:00:53;21.40;99.90
15481;DHT22;7842;50.904;6.670;2023-06-04T06:03:18;21.90;99.90
15481;DHT22;7842;50.904;6.670;2023-06-04T06:05:44;21.80;99.90
15481;DHT22;7842;50.904;6.670;2023-06-04T06:08:10;22.10;99.90
15481;DHT22;7842;50.904;6.670;2023-06-04T06:10:36;22.00;99.90
15481;DHT22;7842;50.904;6.670;2023-06-04T06:13:01;22.00;99.90
15481;DHT22;7842;50.904;6.670;2023-06-04T06:15:27;21.50;99.90
15481;DHT22;7842;50.904;6.670;2023-06-04T06:17:54;21.40;99.90
15481;DHT22;7842;50.904;6.670;2023-06-04T06:20:20;21.70;99.90
15481;DHT22;7842;50.904;6.670;2023-06-04T06:22:48;21.30;99.90
15481;DHT22;7842;50.904;6.670;2023-06-04T06:25:13;22.00;99.90
15481;DHT22;7842;50.904;6.670;2023-06-04T06:27:41;21.60;99.90
15481;DHT22;7842;50.904;6.670;2023-06-04T06:30:07;21.40;99.90
15481;DHT22;7842;50.904;6.670;2023-06-04T06:32:34;20.80;99.90
15481;DHT22;7842;50.904;6.670;2023-06-04T06:35:00;20.50;99.90
15481;DHT22;7842;50.904;6.670;2023-06-04T06:37:26;20.10;99.90
15481;DHT22;7842;50.904;6.670;2023-06-04T06:39:52;20.10;99.90
15481;DHT22;7842;50.904;6.670;2023-06-04T06:42:17;20.00;99.90
15481;DHT22;7842;50.904;6.670;2023-06-04T06:44:47;20.10;99.90
15481;DHT22;7842;50.904;6.670;2023-06-04T06:47:13;19.90;99.90
15481;DHT22;7842;50.904;6.670;2023-06-04T06:49:42;20.60;99.90
15481;DHT22;7842;50.904;6.670;2023-06-04T06:52:07;20.70;99.90
15481;DHT22;7842;50.904;6.670;2023-06-04T06:54:33;20.20;99.90
15481;DHT22;7842;50.904;6.670;2023-06-04T06:56:59;19.90;99.90
15481;DHT22;7842;50.904;6.670;2023-06-04T06:59:24;20.40;99.90
15481;DHT22;7842;50.904;6.670;2023-06-04T07:01:50;21.00;99.90
15481;DHT22;7842;50.904;6.670;2023-06-04T07:04:16;21.50;99.90
15481;DHT22;7842;50.904;6.670;2023-06-04T07:06:42;21.40;99.90
15481;DHT22;7842;50.904;6.670;2023-06-04T07:09:08;21.10;99.90
15481;DHT22;7842;50.904;6.670;2023-06-04T07:11:37;21.10;99.90
15481;DHT22;7842;50.904;6.670;2023-06-04T07:14:02;20.80;99.90
15481;DHT22;7842;50.904;6.670;2023-06-04T07:16:28;20.30;99.90
15481;DHT22;7842;50.904;6.670;2023-06-04T07:18:54;19.50;99.90
15481;DHT22;7842;50.904;6.670;2023-06-04T07:21:20;19.50;99.90
15481;DHT22;7842;50.904;6.670;2023-06-04T07:23:47;19.50;99.90
15481;DHT22;7842;50.904;6.670;2023-06-04T07:26:15;19.30;99.90
15481;DHT22;7842;50.904;6.670;2023-06-04T07:28:41;19.50;99.90
15481;DHT22;7842;50.904;6.670;2023-06-04T07:31:07;19.20;99.90
15481;DHT22;7842;50.904;6.670;2023-06-04T07:33:33;19.40;99.90
15481;DHT22;7842;50.904;6.670;2023-06-04T07:35:58;19.80;99.90
15481;DHT22;7842;50.904;6.670;2023-06-04T07:38:24;20.10;99.90
15481;DHT22;7842;50.904;6.670;2023-06-04T07:40:50;20.10;99.90
15481;DHT22;7842;50.904;6.670;2023-06-04T07:43:16;20.30;99.90
15481;DHT22;7842;50.904;6.670;2023-06-04T07:45:41;20.50;99.90
15481;DHT22;7842;50.904;6.670;2023-06-04T07:48:09;20.40;99.90
15481;DHT22;7842;50.904;6.670;2023-06-04T07:50:36;20.80;99.90
15481;DHT22;7842;50.904;6.670;2023-06-04T07:53:02;21.00;99.90
15481;DHT22;7842;50.904;6.670;2023-06-04T07:55:30;21.20;99.90
15481;DHT22;7842;50.904;6.670;2023-06-04T07:57:57;21.50;99.90
15481;DHT22;7842;50.904;6.670;2023-06-04T08:00:22;21.30;99.90
15481;DHT22;7842;50.904;6.670;2023-06-04T08:02:48;21.30;99.90
15481;DHT22;7842;50.904;6.670;2023-06-04T08:05:16;21.50;99.90
15481;DHT22;7842;50.904;6.670;2023-06-04T08:07:41;21.00;99.90
15481;DHT22;7842;50.904;6.670;2023-06-04T08:10:07;21.40;99.90
15481;DHT22;7842;50.904;6.670;2023-06-04T08:12:33;21.40;99.90
15481;DHT22;7842;50.904;6.670;2023-06-04T08:14:58;21.10;99.90
15481;DHT22;7842;50.904;6.670;2023-06-04T08:17:24;21.00;99.90
15481;DHT22;7842;50.904;6.670;2023-06-04T08:19:50;21.30;99.90
15481;DHT22;7842;50.904;6.670;2023-06-04T08:22:16;21.40;99.90
15481;DHT22;7842;50.904;6.670;2023-06-04T08:24:41;21.60;99.90
15481;DHT22;7842;50.904;6.670;2023-06-04T08:27:07;22.00;99.90
15481;DHT22;7842;50.904;6.670;2023-06-04T08:29:36;21.80;99.90
15481;DHT22;7842;50.904;6.670;2023-06-04T08:32:02;21.80;99.90
15481;DHT22;7842;50.904;6.670;2023-06-04T08:34:29;21.60;99.90
15481;DHT22;7842;50.904;6.670;2023-06-04T08:36:54;21.70;99.90
15481;DHT22;7842;50.904;6.670;2023-06-04T08:39:20;21.80;99.90
15481;DHT22;7842;50.904;6.670;2023-06-04T08:41:52;21.80;99.90
15481;DHT22;7842;50.904;6.670;2023-06-04T08:44:19;21.90;99.90
15481;DHT22;7842;50.904;6.670;2023-06-04T08:46:49;22.20;99.90
15481;DHT22;7842;50.904;6.670;2023-06-04T08:49:16;22.10;99.90
15481;DHT22;7842;50.904;6.670;2023-06-04T08:51:44;22.00;99.90
15481;DHT22;7842;50.904;6.670;2023-06-04T08:54:09;22.10;99.90
15481;DHT22;7842;50.904;6.670;2023-06-04T08:56:36;22.10;99.90
15481;DHT22;7842;50.904;6.670;2023-06-04T08:59:04;22.40;99.90
15481;DHT22;7842;50.904;6.670;2023-06-04T09:01:33;22.50;99.90
15481;DHT22;7842;50.904;6.670;2023-06-04T09:04:01;22.80;99.90
15481;DHT22;7842;50.904;6.670;2023-06-04T09:06:29;23.10;99.90
15481;DHT22;7842;50.904;6.670;2023-06-04T09:08:56;22.70;99.90
15481;DHT22;7842;50.904;6.670;2023-06-04T09:11:27;22.80;99.90
15481;DHT22;7842;50.904;6.670;2023-06-04T09:13:53;22.80;99.90
15481;DHT22;7842;50.904;6.670;2023-06-04T09:16:22;22.70;99.90
15481;DHT22;7842;50.904;6.670;2023-06-04T09:18:48;22.80;99.90
15481;DHT22;7842;50.904;6.670;2023-06-04T09:21:13;22.90;99.90
15481;DHT22;7842;50.904;6.670;2023-06-04T09:23:49;23.10;99.90
15481;DHT22;7842;50.904;6.670;2023-06-04T09:26:14;23.30;99.90
15481;DHT22;7842;50.904;6.670;2023-06-04T09:28:41;23.50;99.90
15481;DHT22;7842;50.904;6.670;2023-06-04T09:31:25;23.20;98.70
15481;DHT22;7842;50.904;6.670;2023-06-04T09:33:52;22.60;99.90
15481;DHT22;7842;50.904;6.670;2023-06-04T09:36:17;22.80;99.90
15481;DHT22;7842;50.904;6.670;2023-06-04T09:38:43;23.30;99.70
15481;DHT22;7842;50.904;6.670;2023-06-04T09:41:13;23.50;99.80
15481;DHT22;7842;50.904;6.670;2023-06-04T09:43:39;23.60;99.90
15481;DHT22;7842;50.904;6.670;2023-06-04T09:46:10;23.30;98.30
15481;DHT22;7842;50.904;6.670;2023-06-04T09:48:36;23.50;99.00
15481;DHT22;7842;50.904;6.670;2023-06-04T09:51:12;23.50;98.20
15481;DHT22;7842;50.904;6.670;2023-06-04T09:53:39;23.00;97.90
15481;DHT22;7842;50.904;6.670;2023-06-04T09:56:05;23.10;97.90
15481;DHT22;7842;50.904;6.670;2023-06-04T09:58:37;23.20;98.20
15481;DHT22;7842;50.904;6.670;2023-06-04T10:01:05;23.30;99.50
15481;DHT22;7842;50.904;6.670;2023-06-04T10:03:36;23.70;98.80
15481;DHT22;7842;50.904;6.670;2023-06-04T10:06:05;23.60;97.40
15481;DHT22;7842;50.904;6.670;2023-06-04T10:08:32;23.60;95.80
15481;DHT22;7842;50.904;6.670;2023-06-04T10:11:03;23.50;92.80
15481;DHT22;7842;50.904;6.670;2023-06-04T10:13:44;23.20;93.00
15481;DHT22;7842;50.904;6.670;2023-06-04T10:16:11;23.50;93.40
15481;DHT22;7842;50.904;6.670;2023-06-04T10:18:41;23.40;92.80
15481;DHT22;7842;50.904;6.670;2023-06-04T10:21:08;23.60;91.70
15481;DHT22;7842;50.904;6.670;2023-06-04T10:23:38;23.50;91.70
15481;DHT22;7842;50.904;6.670;2023-06-04T10:26:04;23.40;92.50
15481;DHT22;7842;50.904;6.670;2023-06-04T10:28:30;23.40;90.60
15481;DHT22;7842;50.904;6.670;2023-06-04T10:30:57;23.30;91.10
15481;DHT22;7842;50.904;6.670;2023-06-04T10:33:23;23.60;91.90
15481;DHT22;7842;50.904;6.670;2023-06-04T10:35:53;23.30;91.00
15481;DHT22;7842;50.904;6.670;2023-06-04T10:38:27;23.20;91.30
15481;DHT22;7842;50.904;6.670;2023-06-04T10:40:56;23.40;92.60
15481;DHT22;7842;50.904;6.670;2023-06-04T10:43:22;23.70;91.00
15481;DHT22;7842;50.904;6.670;2023-06-04T10:45:55;23.70;90.10
15481;DHT22;7842;50.904;6.670;2023-06-04T10:48:21;23.60;90.50
15481;DHT22;7842;50.904;6.670;2023-06-04T10:50:51;23.90;87.80
15481;DHT22;7842;50.904;6.670;2023-06-04T10:53:20;23.50;90.10
15481;DHT22;7842;50.904;6.670;2023-06-04T10:55:50;23.40;87.40
15481;DHT22;7842;50.904;6.670;2023-06-04T10:58:19;23.60;87.30
15481;DHT22;7842;50.904;6.670;2023-06-04T11:00:46;24.00;90.70
15481;DHT22;7842;50.904;6.670;2023-06-04T11:03:14;25.00;88.00
15481;DHT22;7842;50.904;6.670;2023-06-04T11:05:42;24.30;87.00
15481;DHT22;7842;50.904;6.670;2023-06-04T11:08:09;24.20;89.10
15481;DHT22;7842;50.904;6.670;2023-06-04T11:10:41;24.00;89.50
15481;DHT22;7842;50.904;6.670;2023-06-04T11:13:07;24.10;89.10
15481;DHT22;7842;50.904;6.670;2023-06-04T11:15:43;24.30;88.60
15481;DHT22;7842;50.904;6.670;2023-06-04T11:18:20;24.30;81.50
15481;DHT22;7842;50.904;6.670;2023-06-04T11:20:48;24.30;79.90
15481;DHT22;7842;50.904;6.670;2023-06-04T11:23:14;24.30;80.00
15481;DHT22;7842;50.904;6.670;2023-06-04T11:25:41;24.30;79.30
15481;DHT22;7842;50.904;6.670;2023-06-04T11:28:19;24.30;77.70
15481;DHT22;7842;50.904;6.670;2023-06-04T11:30:57;24.40;76.70
15481;DHT22;7842;50.904;6.670;2023-06-04T11:33:24;24.40;75.00
15481;DHT22;7842;50.904;6.670;2023-06-04T11:35:50;24.30;80.50
15481;DHT22;7842;50.904;6.670;2023-06-04T11:38:18;24.30;82.80
15481;DHT22;7842;50.904;6.670;2023-06-04T11:40:44;24.30;83.80
15481;DHT22;7842;50.904;6.670;2023-06-04T11:43:11;24.20;83.80
15481;DHT22;7842;50.904;6.670;2023-06-04T11:45:37;24.40;82.80
15481;DHT22;7842;50.904;6.670;2023-06-04T11:48:05;24.50;83.80
15481;DHT22;7842;50.904;6.670;2023-06-04T11:53:00;24.40;82.00
15481;DHT22;7842;50.904;6.670;2023-06-04T11:55:26;24.70;82.50
15481;DHT22;7842;50.904;6.670;2023-06-04T11:57:53;24.60;82.30
15481;DHT22;7842;50.904;6.670;2023-06-04T12:00:20;24.60;80.00
15481;DHT22;7842;50.904;6.670;2023-06-04T12:02:56;24.50;81.20
15481;DHT22;7842;50.904;6.670;2023-06-04T12:05:23;24.60;79.80
15481;DHT22;7842;50.904;6.670;2023-06-04T12:08:06;24.80;83.20
15481;DHT22;7842;50.904;6.670;2023-06-04T12:10:39;24.80;80.70
15481;DHT22;7842;50.904;6.670;2023-06-04T12:13:08;24.70;79.30
15481;DHT22;7842;50.904;6.670;2023-06-04T12:15:34;24.50;81.30
15481;DHT22;7842;50.904;6.670;2023-06-04T12:18:00;24.60;79.70
15481;DHT22;7842;50.904;6.670;2023-06-04T12:20:52;24.40;80.70
15481;DHT22;7842;50.904;6.670;2023-06-04T12:23:23;24.60;82.30
15481;DHT22;7842;50.904;6.670;2023-06-04T12:25:55;24.50;78.60
15481;DHT22;7842;50.904;6.670;2023-06-04T12:28:23;24.50;79.60
15481;DHT22;7842;50.904;6.670;2023-06-04T12:30:49;24.80;79.70
15481;DHT22;7842;50.904;6.670;2023-06-04T12:33:15;23.70;81.50
15481;DHT22;7842;50.904;6.670;2023-06-04T12:35:44;24.40;80.00
15481;DHT22;7842;50.904;6.670;2023-06-04T12:38:17;24.60;81.90
15481;DHT22;7842;50.904;6.670;2023-06-04T12:40:46;24.50;81.70
15481;DHT22;7842;50.904;6.670;2023-06-04T12:43:12;24.60;83.30
15481;DHT22;7842;50.904;6.670;2023-06-04T12:45:41;24.70;76.00
15481;DHT22;7842;50.904;6.670;2023-06-04T12:48:07;24.30;75.00
15481;DHT22;7842;50.904;6.670;2023-06-04T12:50:33;24.10;77.40
15481;DHT22;7842;50.904;6.670;2023-06-04T12:52:58;24.00;78.00
15481;DHT22;7842;50.904;6.670;2023-06-04T12:55:28;24.50;78.10
15481;DHT22;7842;50.904;6.670;2023-06-04T12:57:53;24.40;78.70
15481;DHT22;7842;50.904;6.670;2023-06-04T13:00:20;24.60;77.80
15481;DHT22;7842;50.904;6.670;2023-06-04T13:02:48;24.80;78.40
15481;DHT22;7842;50.904;6.670;2023-06-04T13:05:17;24.80;79.30
15481;DHT22;7842;50.904;6.670;2023-06-04T13:07:43;24.90;78.90
15481;DHT22;7842;50.904;6.670;2023-06-04T13:10:09;24.70;78.60
15481;DHT22;7842;50.904;6.670;2023-06-04T13:12:35;24.70;75.90
15481;DHT22;7842;50.904;6.670;2023-06-04T13:15:04;24.80;77.00
15481;DHT22;7842;50.904;6.670;2023-06-04T13:17:34;24.90;78.20
15481;DHT22;7842;50.904;6.670;2023-06-04T13:20:06;25.10;83.70
15481;DHT22;7842;50.904;6.670;2023-06-04T13:22:32;25.10;82.30
15481;DHT22;7842;50.904;6.670;2023-06-04T13:24:58;25.00;80.60
15481;DHT22;7842;50.904;6.670;2023-06-04T13:27:24;24.50;80.50
15481;DHT22;7842;50.904;6.670;2023-06-04T13:29:51;24.40;82.30
15481;DHT22;7842;50.904;6.670;2023-06-04T13:32:19;24.80;81.10
15481;DHT22;7842;50.904;6.670;2023-06-04T13:34:45;24.50;80.50
15481;DHT22;7842;50.904;6.670;2023-06-04T13:37:11;24.40;80.40
15481;DHT22;7842;50.904;6.670;2023-06-04T13:39:38;24.30;83.40
15481;DHT22;7842;50.904;6.670;2023-06-04T13:42:04;24.60;82.60
15481;DHT22;7842;50.904;6.670;2023-06-04T13:44:30;24.30;81.60
15481;DHT22;7842;50.904;6.670;2023-06-04T13:46:59;24.30;83.90
15481;DHT22;7842;50.904;6.670;2023-06-04T13:49:27;24.30;82.80
15481;DHT22;7842;50.904;6.670;2023-06-04T13:51:52;24.50;83.60
15481;DHT22;7842;50.904;6.670;2023-06-04T13:54:18;24.60;84.50
15481;DHT22;7842;50.904;6.670;2023-06-04T13:56:44;24.60;83.40
15481;DHT22;7842;50.904;6.670;2023-06-04T13:59:10;24.60;83.30
15481;DHT22;7842;50.904;6.670;2023-06-04T14:04:01;24.70;84.40
15481;DHT22;7842;50.904;6.670;2023-06-04T14:06:31;24.60;83.70
15481;DHT22;7842;50.904;6.670;2023-06-04T14:11:23;24.90;83.90
15481;DHT22;7842;50.904;6.670;2023-06-04T14:13:48;25.20;84.30
15481;DHT22;7842;50.904;6.670;2023-06-04T14:16:14;25.30;84.30
15481;DHT22;7842;50.904;6.670;2023-06-04T14:18:40;25.30;82.50
15481;DHT22;7842;50.904;6.670;2023-06-04T14:21:05;25.10;84.00
15481;DHT22;7842;50.904;6.670;2023-06-04T14:23:31;24.80;81.70
15481;DHT22;7842;50.904;6.670;2023-06-04T14:25:56;24.80;82.80
15481;DHT22;7842;50.904;6.670;2023-06-04T14:28:22;24.80;84.20
15481;DHT22;7842;50.904;6.670;2023-06-04T14:30:48;24.60;84.10
15481;DHT22;7842;50.904;6.670;2023-06-04T14:33:13;24.90;81.40
15481;DHT22;7842;50.904;6.670;2023-06-04T14:35:39;25.00;82.30
15481;DHT22;7842;50.904;6.670;2023-06-04T14:38:09;25.00;82.20
15481;DHT22;7842;50.904;6.670;2023-06-04T14:40:35;25.10;82.50
15481;DHT22;7842;50.904;6.670;2023-06-04T14:43:03;25.10;83.00
15481;DHT22;7842;50.904;6.670;2023-06-04T14:45:29;25.00;83.10
15481;DHT22;7842;50.904;6.670;2023-06-04T14:47:54;24.90;81.70
15481;DHT22;7842;50.904;6.670;2023-06-04T14:50:20;25.00;82.30
15481;DHT22;7842;50.904;6.670;2023-06-04T14:52:47;25.00;84.40
15481;DHT22;7842;50.904;6.670;2023-06-04T14:55:13;25.00;83.00
15481;DHT22;7842;50.904;6.670;2023-06-04T14:57:39;25.10;82.70
15481;DHT22;7842;50.904;6.670;2023-06-04T15:00:06;25.10;82.70
15481;DHT22;7842;50.904;6.670;2023-06-04T15:02:32;24.80;81.10
15481;DHT22;7842;50.904;6.670;2023-06-04T15:04:57;24.90;82.60
15481;DHT22;7842;50.904;6.670;2023-06-04T15:07:23;25.10;82.70
15481;DHT22;7842;50.904;6.670;2023-06-04T15:09:48;25.00;82.20
15481;DHT22;7842;50.904;6.670;2023-06-04T15:12:15;24.90;82.20
15481;DHT22;7842;50.904;6.670;2023-06-04T15:14:42;24.90;83.20
15481;DHT22;7842;50.904;6.670;2023-06-04T15:17:08;25.20;84.20
15481;DHT22;7842;50.904;6.670;2023-06-04T15:19:34;25.20;82.50
15481;DHT22;7842;50.904;6.670;2023-06-04T15:29:18;25.10;83.10
15481;DHT22;7842;50.904;6.670;2023-06-04T15:31:44;25.20;81.30
15481;DHT22;7842;50.904;6.670;2023-06-04T15:34:11;25.20;80.80
15481;DHT22;7842;50.904;6.670;2023-06-04T15:36:37;25.20;82.50
15481;DHT22;7842;50.904;6.670;2023-06-04T15:39:03;25.30;82.50
15481;DHT22;7842;50.904;6.670;2023-06-04T15:41:29;25.40;82.50
15481;DHT22;7842;50.904;6.670;2023-06-04T15:43:55;25.40;82.40
15481;DHT22;7842;50.904;6.670;2023-06-04T15:46:24;25.20;82.40
15481;DHT22;7842;50.904;6.670;2023-06-04T15:48:50;25.20;81.10
15481;DHT22;7842;50.904;6.670;2023-06-04T15:51:16;25.30;82.70
15481;DHT22;7842;50.904;6.670;2023-06-04T15:53:43;25.20;83.50
15481;DHT22;7842;50.904;6.670;2023-06-04T15:56:09;24.90;82.20
15481;DHT22;7842;50.904;6.670;2023-06-04T15:58:35;25.00;84.30
15481;DHT22;7842;50.904;6.670;2023-06-04T16:01:00;25.20;83.80
15481;DHT22;7842;50.904;6.670;2023-06-04T16:03:26;25.40;85.20